Time;durP1;ratioP1;P1;durP2;ratioP2;P2;SDS_P1;SDS_P2;PMS_P1;PMS_P2;Temp;Humidity;BMP_temperature;BMP_pressure;BME280_temperature;BME280_humidity;BME280_pressure;Samples;Min_cycle;Max_cycle;Signal;HPM_P1;HPM_P2
2024/01/11 00:02:10;;;;;;;85.10;9.70;;;;;;;;;;5069994;28;20032;-48
2024/01/11 00:04:36;;;;;;;76.07;8.63;;;;;;;;;;5060315;28;20284;-46
2024/01/11 00:07:04;;;;;;;62.13;7.63;;;;;;;;;;5067186;28;20060;-43
2024/01/11 00:09:31;;;;;;;61.42;7.10;;;;;;;;;;5069927;28;20363;-44
2024/01/11 00:11:57;;;;;;;62.22;6.72;;;;;;;;;;5069452;28;20115;-40
2024/01/11 00:14:24;;;;;;;56.97;6.20;;;;;;;;;;5069672;28;20027;-42
2024/01/11 00:16:52;;;;;;;56.55;7.38;;;;;;;;;;5068796;28;20033;-42
2024/01/11 00:19:19;;;;;;;61.20;7.63;;;;;;;;;;5071036;28;20025;-41
2024/01/11 00:21:46;;;;;;;53.85;7.15;;;;;;;;;;5072428;28;20047;-46
2024/01/11 00:24:13;;;;;;;60.17;8.18;;;;;;;;;;5068954;28;20210;-47
2024/01/11 00:26:41;;;;;;;57.88;9.27;;;;;;;;;;5072074;28;20164;-42
2024/01/11 00:29:08;;;;;;;57.95;8.38;;;;;;;;;;5072256;28;20040;-41
2024/01/11 00:31:36;;;;;;;44.33;7.85;;;;;;;;;;5073010;28;20028;-42
2024/01/11 00:34:03;;;;;;;57.78;7.57;;;;;;;;;;5072828;28;20031;-47
2024/01/11 00:36:30;;;;;;;62.75;7.40;;;;;;;;;;5073091;28;20043;-41
2024/01/11 00:38:57;;;;;;;54.85;7.35;;;;;;;;;;5073992;28;20036;-46
2024/01/11 00:41:24;;;;;;;38.30;6.80;;;;;;;;;;5074115;28;20386;-43
2024/01/11 00:43:51;;;;;;;59.03;8.02;;;;;;;;;;5071692;28;20131;-41
2024/01/11 00:46:18;;;;;;;110.05;11.30;;;;;;;;;;5072236;28;20021;-45
2024/01/11 00:48:45;;;;;;;83.35;10.27;;;;;;;;;;5070003;28;20031;-45
2024/01/11 00:51:12;;;;;;;64.28;9.25;;;;;;;;;;5065737;28;20071;-48
2024/01/11 00:53:39;;;;;;;65.18;9.55;;;;;;;;;;5069892;28;20025;-46
2024/01/11 00:56:06;;;;;;;72.18;9.23;;;;;;;;;;5069192;28;20071;-46
2024/01/11 00:58:33;;;;;;;52.92;8.73;;;;;;;;;;5069046;28;20455;-46
2024/01/11 01:01:00;;;;;;;55.83;8.85;;;;;;;;;;5069852;28;20040;-47
2024/01/11 01:03:27;;;;;;;48.10;7.53;;;;;;;;;;5069276;28;20090;-44
2024/01/11 01:05:54;;;;;;;50.90;7.78;;;;;;;;;;5067657;28;20033;-49
2024/01/11 01:08:21;;;;;;;54.55;9.02;;;;;;;;;;5071926;28;20139;-47
2024/01/11 01:10:48;;;;;;;52.58;8.18;;;;;;;;;;5069712;28;20036;-46
2024/01/11 01:13:18;;;;;;;62.42;8.32;;;;;;;;;;5063958;28;20028;-46
2024/01/11 01:15:45;;;;;;;55.22;8.05;;;;;;;;;;5072632;28;20083;-48
2024/01/11 01:18:12;;;;;;;44.92;7.35;;;;;;;;;;5073381;28;20025;-48
2024/01/11 01:20:39;;;;;;;60.17;8.18;;;;;;;;;;5073568;28;20036;-47
2024/01/11 01:23:06;;;;;;;51.47;7.90;;;;;;;;;;5073391;28;20036;-47
2024/01/11 01:25:33;;;;;;;53.00;9.05;;;;;;;;;;5073225;28;20028;-45
2024/01/11 01:28:00;;;;;;;41.55;8.05;;;;;;;;;;5073325;28;20390;-46
2024/01/11 01:30:28;;;;;;;53.75;9.00;;;;;;;;;;5069573;28;20115;-49
2024/01/11 01:32:56;;;;;;;63.10;10.15;;;;;;;;;;5066504;28;20029;-56
2024/01/11 01:35:23;;;;;;;73.10;12.35;;;;;;;;;;5067914;28;20028;-46
2024/01/11 01:37:50;;;;;;;65.18;12.25;;;;;;;;;;5068184;28;20024;-44
2024/01/11 01:40:17;;;;;;;56.03;10.90;;;;;;;;;;5064547;28;20515;-45
2024/01/11 01:42:44;;;;;;;52.35;9.57;;;;;;;;;;5065396;28;20668;-50
2024/01/11 01:45:12;;;;;;;48.88;8.63;;;;;;;;;;5062400;28;20048;-46
2024/01/11 01:47:43;;;;;;;42.42;10.23;;;;;;;;;;5064758;28;20024;-47
2024/01/11 01:50:11;;;;;;;31.35;9.60;;;;;;;;;;5065951;28;20028;-44
2024/01/11 01:52:40;;;;;;;43.05;8.00;;;;;;;;;;5064057;28;20754;-44
2024/01/11 01:55:07;;;;;;;36.20;6.82;;;;;;;;;;5061252;28;20040;-50
2024/01/11 01:57:35;;;;;;;37.20;6.25;;;;;;;;;;5065098;28;20030;-44
2024/01/11 02:00:03;;;;;;;31.60;6.97;;;;;;;;;;5062572;28;20028;-45
2024/01/11 02:02:30;;;;;;;27.25;5.30;;;;;;;;;;5067665;28;20371;-47
2024/01/11 02:04:58;;;;;;;29.75;6.45;;;;;;;;;;5067968;28;20511;-45
2024/01/11 02:07:25;;;;;;;21.73;5.03;;;;;;;;;;5071509;28;20024;-46
2024/01/11 02:09:53;;;;;;;23.05;4.68;;;;;;;;;;5071925;28;20045;-46
2024/01/11 02:12:20;;;;;;;174.63;13.02;;;;;;;;;;5067878;28;20367;-42
2024/01/11 02:14:47;;;;;;;289.98;19.58;;;;;;;;;;5069285;28;20374;-43
2024/01/11 02:17:14;;;;;;;294.33;21.48;;;;;;;;;;5069937;28;20497;-46
2024/01/11 02:19:41;;;;;;;231.75;15.68;;;;;;;;;;5071358;28;20103;-42
2024/01/11 02:22:16;;;;;;;231.30;16.80;;;;;;;;;;5069041;28;20170;-44
2024/01/11 02:24:43;;;;;;;194.80;16.45;;;;;;;;;;5060300;28;20032;-42
2024/01/11 02:27:10;;;;;;;173.52;15.25;;;;;;;;;;5065013;28;20482;-41
2024/01/11 02:29:37;;;;;;;166.90;12.80;;;;;;;;;;5067977;28;20040;-39
2024/01/11 02:32:06;;;;;;;173.23;14.23;;;;;;;;;;5069109;28;20040;-39
2024/01/11 02:34:33;;;;;;;188.70;15.90;;;;;;;;;;5065617;28;20148;-42
2024/01/11 02:37:00;;;;;;;185.52;16.02;;;;;;;;;;5069069;28;20020;-43
2024/01/11 02:39:27;;;;;;;163.50;14.48;;;;;;;;;;5062770;28;20033;-42
2024/01/11 02:41:55;;;;;;;168.77;15.05;;;;;;;;;;5065197;28;20036;-44
2024/01/11 02:44:22;;;;;;;152.50;14.00;;;;;;;;;;5068407;28;20032;-40
2024/01/11 02:46:49;;;;;;;165.90;14.57;;;;;;;;;;5065981;28;20603;-43
2024/01/11 02:49:16;;;;;;;167.75;13.25;;;;;;;;;;5068062;28;20399;-45
2024/01/11 02:51:43;;;;;;;145.82;12.68;;;;;;;;;;5067368;28;20056;-42
2024/01/11 02:54:10;;;;;;;133.55;12.85;;;;;;;;;;5068944;28;20020;-44
2024/01/11 02:56:37;;;;;;;119.20;12.45;;;;;;;;;;5066588;28;20032;-44
2024/01/11 02:59:04;;;;;;;115.57;10.52;;;;;;;;;;5068176;28;20058;-44
2024/01/11 03:01:32;;;;;;;104.53;9.50;;;;;;;;;;5068220;28;20063;-43
2024/01/11 03:04:00;;;;;;;107.30;9.82;;;;;;;;;;5068682;28;20040;-44
2024/01/11 03:06:27;;;;;;;130.52;10.20;;;;;;;;;;5069729;28;20482;-39
2024/01/11 03:08:55;;;;;;;86.28;8.45;;;;;;;;;;5068818;28;20032;-51
2024/01/11 03:11:22;;;;;;;107.22;9.32;;;;;;;;;;5070163;28;20490;-43
2024/01/11 03:13:49;;;;;;;91.82;8.40;;;;;;;;;;5067603;28;20523;-42
2024/01/11 03:16:16;;;;;;;80.15;7.93;;;;;;;;;;5066685;28;20024;-45
2024/01/11 03:18:43;;;;;;;125.20;9.80;;;;;;;;;;5068097;28;20162;-42
2024/01/11 03:21:10;;;;;;;106.47;8.77;;;;;;;;;;5064792;28;20040;-45
2024/01/11 03:23:37;;;;;;;88.53;7.20;;;;;;;;;;5067111;28;20490;-43
2024/01/11 03:26:04;;;;;;;76.70;7.50;;;;;;;;;;5070320;28;20052;-43
2024/01/11 03:28:31;;;;;;;75.40;6.88;;;;;;;;;;5070885;28;20032;-44
2024/01/11 03:30:58;;;;;;;88.53;8.50;;;;;;;;;;5070759;28;20040;-44
2024/01/11 03:33:25;;;;;;;58.30;6.40;;;;;;;;;;5069557;28;20090;-44
2024/01/11 03:35:56;;;;;;;67.13;7.20;;;;;;;;;;5065677;28;20073;-42
2024/01/11 03:38:23;;;;;;;49.30;5.75;;;;;;;;;;5070422;28;20028;-43
2024/01/11 03:40:50;;;;;;;56.83;6.20;;;;;;;;;;5069750;28;20117;-47
2024/01/11 03:43:20;;;;;;;54.03;6.55;;;;;;;;;;5069950;28;20715;-42
2024/01/11 03:45:47;;;;;;;61.15;6.53;;;;;;;;;;5069742;28;20037;-47
2024/01/11 03:48:13;;;;;;;56.22;6.15;;;;;;;;;;5067575;28;20024;-42
2024/01/11 03:50:40;;;;;;;55.50;6.05;;;;;;;;;;5067931;28;20032;-46
2024/01/11 03:53:08;;;;;;;40.92;5.70;;;;;;;;;;5063888;28;20036;-46
2024/01/11 03:55:35;;;;;;;69.07;7.22;;;;;;;;;;5071647;28;20035;-45
2024/01/11 03:58:02;;;;;;;55.13;6.32;;;;;;;;;;5071328;28;20541;-44
2024/01/11 04:00:29;;;;;;;38.33;4.38;;;;;;;;;;5059515;28;20028;-47
2024/01/11 04:02:56;;;;;;;34.88;4.72;;;;;;;;;;5067750;28;20024;-47
2024/01/11 04:05:23;;;;;;;41.40;4.63;;;;;;;;;;5065973;28;20036;-45
2024/01/11 04:07:50;;;;;;;33.83;4.68;;;;;;;;;;5067760;28;20098;-46
2024/01/11 04:10:18;;;;;;;32.03;4.47;;;;;;;;;;5065496;28;20444;-47
2024/01/11 04:12:45;;;;;;;30.52;4.00;;;;;;;;;;5068724;28;20874;-47
2024/01/11 04:15:15;;;;;;;35.97;4.43;;;;;;;;;;5061543;28;20028;-52
2024/01/11 04:17:42;;;;;;;30.00;4.20;;;;;;;;;;5052938;28;20032;-43
2024/01/11 04:20:09;;;;;;;35.45;3.92;;;;;;;;;;5057509;28;20445;-44
2024/01/11 04:22:36;;;;;;;30.85;4.30;;;;;;;;;;5056660;28;20483;-44
2024/01/11 04:25:04;;;;;;;33.22;3.95;;;;;;;;;;5060967;28;20561;-43
2024/01/11 04:27:31;;;;;;;25.40;3.90;;;;;;;;;;5055825;28;20562;-47
2024/01/11 04:29:58;;;;;;;29.27;4.55;;;;;;;;;;5065139;28;20437;-45
2024/01/11 04:32:25;;;;;;;31.33;3.47;;;;;;;;;;5058641;28;20382;-44
2024/01/11 04:34:51;;;;;;;19.08;3.08;;;;;;;;;;5058238;28;20021;-51
2024/01/11 04:37:19;;;;;;;24.45;4.00;;;;;;;;;;5057565;28;20127;-45
2024/01/11 04:39:46;;;;;;;22.77;3.28;;;;;;;;;;5064850;28;20024;-49
2024/01/11 04:42:13;;;;;;;24.27;3.38;;;;;;;;;;5066508;28;20119;-43
2024/01/11 04:44:40;;;;;;;18.38;2.92;;;;;;;;;;5066482;28;20025;-45
2024/01/11 04:47:08;;;;;;;19.73;2.88;;;;;;;;;;5065435;28;20095;-43
2024/01/11 04:49:35;;;;;;;17.33;2.88;;;;;;;;;;5065319;28;20028;-43
2024/01/11 04:52:02;;;;;;;22.45;2.65;;;;;;;;;;5066129;28;20502;-45
2024/01/11 04:54:29;;;;;;;18.70;2.63;;;;;;;;;;5081146;28;20033;-44
2024/01/11 04:56:56;;;;;;;18.30;2.30;;;;;;;;;;5056157;28;20487;-45
2024/01/11 04:59:23;;;;;;;13.32;2.33;;;;;;;;;;5053889;28;20044;-44
2024/01/11 05:01:50;;;;;;;14.93;2.53;;;;;;;;;;5053804;28;20025;-47
2024/01/11 05:04:17;;;;;;;17.48;2.50;;;;;;;;;;5052980;28;20082;-43
2024/01/11 05:06:44;;;;;;;18.00;2.60;;;;;;;;;;5053616;28;20033;-46
2024/01/11 05:09:11;;;;;;;20.60;2.13;;;;;;;;;;5053700;28;20056;-48
2024/01/11 05:11:38;;;;;;;14.07;2.47;;;;;;;;;;5061372;28;20558;-48
2024/01/11 05:14:05;;;;;;;16.75;2.38;;;;;;;;;;5062798;28;20097;-49
2024/01/11 05:16:32;;;;;;;12.90;1.98;;;;;;;;;;5063665;28;20032;-49
2024/01/11 05:18:59;;;;;;;16.70;1.98;;;;;;;;;;5077986;28;20127;-47
2024/01/11 05:21:26;;;;;;;12.98;2.13;;;;;;;;;;5063773;28;20079;-46
2024/01/11 05:23:53;;;;;;;9.60;2.03;;;;;;;;;;5064664;28;20041;-48
2024/01/11 05:26:21;;;;;;;10.05;1.88;;;;;;;;;;5061120;28;20063;-50
2024/01/11 05:28:48;;;;;;;14.13;2.00;;;;;;;;;;5062661;28;20037;-44
2024/01/11 05:31:15;;;;;;;11.70;2.42;;;;;;;;;;5068563;28;20127;-50
2024/01/11 05:33:42;;;;;;;6.10;1.50;;;;;;;;;;5062140;28;20036;-52
2024/01/11 05:36:12;;;;;;;7.68;1.70;;;;;;;;;;5064413;28;20024;-45
2024/01/11 05:38:42;;;;;;;9.70;2.05;;;;;;;;;;5061445;28;20033;-45
2024/01/11 05:41:09;;;;;;;8.77;1.70;;;;;;;;;;5062153;28;20431;-47
2024/01/11 05:43:39;;;;;;;9.77;1.92;;;;;;;;;;5063284;28;20422;-46
2024/01/11 05:46:06;;;;;;;11.38;1.88;;;;;;;;;;5062004;28;20037;-45
2024/01/11 05:48:33;;;;;;;11.73;1.67;;;;;;;;;;5061427;28;20040;-46
2024/01/11 05:51:00;;;;;;;7.03;1.70;;;;;;;;;;5061265;28;20028;-48
2024/01/11 05:53:27;;;;;;;11.38;1.80;;;;;;;;;;5063717;28;20115;-47
2024/01/11 05:55:54;;;;;;;7.47;1.58;;;;;;;;;;5061372;28;20134;-45
2024/01/11 05:58:21;;;;;;;10.88;2.00;;;;;;;;;;5063021;28;20025;-49
2024/01/11 06:00:48;;;;;;;10.63;1.73;;;;;;;;;;5062815;28;20036;-47
2024/01/11 06:03:15;;;;;;;20.23;2.40;;;;;;;;;;5063337;28;20029;-46
2024/01/11 06:05:42;;;;;;;17.83;2.25;;;;;;;;;;5061041;28;20047;-46
2024/01/11 06:08:09;;;;;;;12.18;2.53;;;;;;;;;;5061867;28;20098;-46
2024/01/11 06:10:37;;;;;;;12.73;2.20;;;;;;;;;;5062247;28;20153;-45
2024/01/11 06:13:04;;;;;;;15.55;2.50;;;;;;;;;;5061319;28;20040;-46
2024/01/11 06:15:31;;;;;;;10.35;2.17;;;;;;;;;;5059426;28;20020;-50
2024/01/11 06:17:58;;;;;;;6.47;1.83;;;;;;;;;;5060237;28;20033;-51
2024/01/11 06:20:25;;;;;;;13.65;2.17;;;;;;;;;;5062607;28;20024;-46
2024/01/11 06:22:52;;;;;;;17.27;2.42;;;;;;;;;;5057389;28;20522;-47
2024/01/11 06:25:19;;;;;;;12.40;2.10;;;;;;;;;;5052247;28;20494;-46
2024/01/11 06:27:48;;;;;;;16.75;2.35;;;;;;;;;;5052093;28;20057;-50
2024/01/11 06:30:15;;;;;;;10.68;2.15;;;;;;;;;;5052294;28;20036;-46
2024/01/11 06:32:42;;;;;;;15.73;2.20;;;;;;;;;;5052258;28;20032;-50
2024/01/11 06:35:09;;;;;;;13.88;2.15;;;;;;;;;;5052151;28;20025;-51
2024/01/11 06:37:36;;;;;;;14.32;2.20;;;;;;;;;;5052120;28;20112;-50
2024/01/11 06:40:03;;;;;;;13.13;2.08;;;;;;;;;;5052327;28;20443;-49
2024/01/11 06:42:31;;;;;;;12.13;1.90;;;;;;;;;;5052091;28;20453;-48
2024/01/11 06:44:58;;;;;;;9.52;1.80;;;;;;;;;;5051978;28;20068;-45
2024/01/11 06:47:25;;;;;;;9.98;1.77;;;;;;;;;;5051944;28;20545;-50
2024/01/11 06:49:52;;;;;;;7.82;1.73;;;;;;;;;;5051949;28;20087;-48
2024/01/11 06:52:19;;;;;;;9.32;1.83;;;;;;;;;;5051997;28;20433;-47
2024/01/11 06:54:46;;;;;;;6.72;1.73;;;;;;;;;;5051874;28;20086;-46
2024/01/11 06:57:13;;;;;;;10.00;1.52;;;;;;;;;;5051696;28;20053;-49
2024/01/11 06:59:40;;;;;;;11.23;1.80;;;;;;;;;;5051873;28;20079;-51
2024/01/11 07:02:07;;;;;;;8.88;1.70;;;;;;;;;;5051739;28;20433;-49
2024/01/11 07:04:34;;;;;;;8.27;1.85;;;;;;;;;;5051713;28;20122;-50
2024/01/11 07:07:04;;;;;;;10.15;1.52;;;;;;;;;;5051529;28;20029;-48
2024/01/11 07:09:31;;;;;;;8.18;1.60;;;;;;;;;;5051630;28;20037;-46
2024/01/11 07:11:58;;;;;;;8.68;1.73;;;;;;;;;;5051575;28;20033;-48
2024/01/11 07:14:25;;;;;;;10.45;1.92;;;;;;;;;;5051633;28;20490;-48
2024/01/11 07:16:52;;;;;;;7.53;1.38;;;;;;;;;;5051536;28;20102;-52
2024/01/11 07:19:20;;;;;;;8.65;1.83;;;;;;;;;;5051545;28;20032;-47
2024/01/11 07:21:47;;;;;;;9.85;1.45;;;;;;;;;;5051449;28;20041;-47
2024/01/11 07:24:14;;;;;;;6.78;1.67;;;;;;;;;;5051347;28;20029;-47
2024/01/11 07:26:41;;;;;;;6.97;1.88;;;;;;;;;;5051293;28;20049;-49
2024/01/11 07:29:08;;;;;;;9.90;1.60;;;;;;;;;;5056908;28;20040;-47
2024/01/11 07:31:35;;;;;;;6.95;1.67;;;;;;;;;;5058104;28;20071;-47
2024/01/11 07:34:02;;;;;;;7.22;1.88;;;;;;;;;;5058050;28;20550;-46
2024/01/11 07:36:29;;;;;;;5.78;1.80;;;;;;;;;;5057483;28;20037;-46
2024/01/11 07:38:57;;;;;;;8.93;1.83;;;;;;;;;;5058043;28;20029;-50
2024/01/11 07:41:24;;;;;;;7.63;1.45;;;;;;;;;;5058123;28;20422;-46
2024/01/11 07:43:51;;;;;;;9.68;1.38;;;;;;;;;;5057994;28;20029;-47
2024/01/11 07:46:18;;;;;;;6.45;1.83;;;;;;;;;;5057988;28;20552;-48
2024/01/11 07:48:45;;;;;;;5.85;1.55;;;;;;;;;;5058036;28;20071;-48
2024/01/11 07:51:12;;;;;;;9.95;1.33;;;;;;;;;;5057995;28;20025;-47
2024/01/11 07:53:40;;;;;;;9.57;1.52;;;;;;;;;;5057948;28;20031;-49
2024/01/11 07:56:08;;;;;;;7.13;1.60;;;;;;;;;;5057932;28;20566;-47
2024/01/11 07:58:37;;;;;;;9.68;1.83;;;;;;;;;;5057807;28;20360;-48
2024/01/11 08:01:04;;;;;;;7.85;1.70;;;;;;;;;;5057481;28;20028;-47
2024/01/11 08:03:32;;;;;;;11.52;1.50;;;;;;;;;;5057657;28;20103;-52
2024/01/11 08:06:00;;;;;;;8.30;1.52;;;;;;;;;;5057984;28;20036;-50
2024/01/11 08:08:27;;;;;;;9.27;1.50;;;;;;;;;;5057774;28;20395;-51
2024/01/11 08:10:54;;;;;;;10.32;1.98;;;;;;;;;;5057709;28;20033;-51
2024/01/11 08:13:21;;;;;;;6.63;1.52;;;;;;;;;;5056265;28;20479;-50
2024/01/11 08:15:48;;;;;;;6.18;1.50;;;;;;;;;;5057830;28;20021;-49
2024/01/11 08:18:15;;;;;;;6.75;1.40;;;;;;;;;;5057582;28;20079;-49
2024/01/11 08:20:42;;;;;;;7.20;1.25;;;;;;;;;;5057602;28;20039;-50
2024/01/11 08:23:10;;;;;;;5.57;1.50;;;;;;;;;;5057686;28;20025;-49
2024/01/11 08:25:37;;;;;;;5.05;1.65;;;;;;;;;;5057307;28;20024;-46
2024/01/11 08:28:04;;;;;;;7.90;1.83;;;;;;;;;;5057537;28;20502;-45
2024/01/11 08:30:31;;;;;;;9.57;1.63;;;;;;;;;;5056238;28;20036;-45
2024/01/11 08:32:57;;;;;;;6.88;1.85;;;;;;;;;;5057523;28;20118;-45
2024/01/11 08:35:24;;;;;;;6.57;1.52;;;;;;;;;;5057565;28;20498;-45
2024/01/11 08:37:51;;;;;;;9.40;1.98;;;;;;;;;;5057334;28;20032;-46
2024/01/11 08:40:18;;;;;;;6.30;1.50;;;;;;;;;;5054120;28;20562;-45
2024/01/11 08:42:45;;;;;;;8.10;2.20;;;;;;;;;;5054362;28;20040;-45
2024/01/11 08:45:17;;;;;;;7.78;1.70;;;;;;;;;;5054203;28;20037;-45
2024/01/11 08:47:47;;;;;;;6.30;1.70;;;;;;;;;;5054083;28;20064;-45
2024/01/11 08:50:15;;;;;;;10.40;1.70;;;;;;;;;;5054182;28;20029;-47
2024/01/11 08:52:42;;;;;;;8.50;1.90;;;;;;;;;;5054204;28;20021;-50
2024/01/11 08:55:09;;;;;;;9.75;1.90;;;;;;;;;;5054001;28;20078;-45
2024/01/11 08:57:37;;;;;;;8.55;1.80;;;;;;;;;;5053980;28;20021;-45
2024/01/11 09:00:06;;;;;;;7.82;1.60;;;;;;;;;;5054075;28;20508;-48
2024/01/11 09:02:33;;;;;;;7.88;1.90;;;;;;;;;;5053900;28;20078;-45
2024/01/11 09:05:00;;;;;;;9.35;1.75;;;;;;;;;;5072023;28;20021;-45
2024/01/11 09:07:27;;;;;;;8.50;1.60;;;;;;;;;;5073835;28;20490;-46
2024/01/11 09:09:54;;;;;;;7.38;1.55;;;;;;;;;;5073761;28;20094;-45
2024/01/11 09:12:21;;;;;;;9.00;2.10;;;;;;;;;;5073872;28;20017;-46
2024/01/11 09:14:48;;;;;;;10.98;2.15;;;;;;;;;;5073761;28;20037;-44
2024/01/11 09:17:15;;;;;;;9.20;1.70;;;;;;;;;;5073661;28;20029;-45
2024/01/11 09:19:42;;;;;;;8.43;1.50;;;;;;;;;;5073665;28;20021;-48
2024/01/11 09:22:09;;;;;;;7.88;2.10;;;;;;;;;;5073615;28;20032;-45
2024/01/11 09:24:37;;;;;;;9.05;1.77;;;;;;;;;;5073596;28;20146;-45
2024/01/11 09:27:07;;;;;;;9.82;2.20;;;;;;;;;;5073254;28;20056;-45
2024/01/11 09:29:33;;;;;;;9.43;1.75;;;;;;;;;;5073567;28;20482;-45
2024/01/11 09:32:01;;;;;;;10.75;2.08;;;;;;;;;;5073448;28;20053;-48
2024/01/11 09:34:28;;;;;;;8.98;1.85;;;;;;;;;;5073428;28;20078;-45
2024/01/11 09:36:58;;;;;;;12.15;2.13;;;;;;;;;;5073220;28;20024;-45
2024/01/11 09:39:25;;;;;;;8.95;1.95;;;;;;;;;;5073176;28;20028;-45
2024/01/11 09:41:56;;;;;;;10.10;2.10;;;;;;;;;;5073262;28;20021;-45
2024/01/11 09:44:24;;;;;;;12.63;2.00;;;;;;;;;;5073105;28;20036;-45
2024/01/11 09:46:51;;;;;;;15.73;2.42;;;;;;;;;;5073009;28;20024;-47
2024/01/11 09:49:18;;;;;;;9.10;1.95;;;;;;;;;;5073106;28;20107;-45
2024/01/11 09:51:46;;;;;;;12.10;2.38;;;;;;;;;;5072838;28;20027;-45
2024/01/11 09:54:15;;;;;;;13.00;2.25;;;;;;;;;;5073017;28;20028;-44
2024/01/11 09:56:42;;;;;;;7.97;2.38;;;;;;;;;;5072829;28;20017;-44
2024/01/11 09:59:09;;;;;;;8.23;1.90;;;;;;;;;;5071788;28;20063;-44
2024/01/11 10:01:37;;;;;;;12.13;2.28;;;;;;;;;;5072866;28;20043;-44
2024/01/11 10:04:04;;;;;;;12.45;2.55;;;;;;;;;;5072516;28;20044;-44
2024/01/11 10:06:36;;;;;;;10.75;1.92;;;;;;;;;;5072570;28;20486;-44
2024/01/11 10:09:03;;;;;;;10.55;2.13;;;;;;;;;;5072732;28;20020;-44
2024/01/11 10:11:30;;;;;;;13.07;2.22;;;;;;;;;;5072720;28;20029;-46
2024/01/11 10:13:59;;;;;;;9.25;2.10;;;;;;;;;;5070955;28;20020;-46
2024/01/11 10:16:26;;;;;;;11.55;2.13;;;;;;;;;;5072337;28;20122;-44
2024/01/11 10:18:55;;;;;;;10.52;2.20;;;;;;;;;;5072502;28;20021;-46
2024/01/11 10:21:22;;;;;;;14.57;2.70;;;;;;;;;;5071281;28;20023;-45
2024/01/11 10:23:50;;;;;;;12.25;2.35;;;;;;;;;;5068523;28;20517;-45
2024/01/11 10:26:17;;;;;;;14.98;3.03;;;;;;;;;;5071358;28;20051;-45
2024/01/11 10:28:47;;;;;;;18.45;2.83;;;;;;;;;;5071589;28;20047;-49
2024/01/11 10:31:18;;;;;;;15.48;2.80;;;;;;;;;;5071677;28;20027;-45
2024/01/11 10:33:46;;;;;;;13.43;2.38;;;;;;;;;;5071633;28;20043;-45
2024/01/11 10:36:13;;;;;;;17.40;2.35;;;;;;;;;;5071510;28;20494;-44
2024/01/11 10:38:40;;;;;;;13.68;2.55;;;;;;;;;;5071016;28;20025;-44
2024/01/11 10:41:08;;;;;;;11.38;2.28;;;;;;;;;;5070869;28;20035;-44
2024/01/11 10:43:39;;;;;;;10.48;2.00;;;;;;;;;;5071430;28;20052;-44
2024/01/11 10:46:07;;;;;;;13.20;2.67;;;;;;;;;;5071298;28;20052;-44
2024/01/11 10:48:41;;;;;;;15.82;2.50;;;;;;;;;;5071260;28;20032;-44
2024/01/11 10:51:12;;;;;;;11.05;2.35;;;;;;;;;;5068584;28;20036;-46
2024/01/11 10:53:46;;;;;;;15.80;2.25;;;;;;;;;;5071279;28;20111;-45
2024/01/11 10:56:14;;;;;;;11.70;2.60;;;;;;;;;;5069215;28;20153;-45
2024/01/11 10:58:42;;;;;;;14.35;2.28;;;;;;;;;;5069869;28;20036;-44
2024/01/11 11:01:10;;;;;;;12.13;2.83;;;;;;;;;;5068529;28;20448;-43
2024/01/11 11:03:38;;;;;;;12.77;2.58;;;;;;;;;;5070422;28;20482;-46
2024/01/11 11:06:08;;;;;;;13.75;2.47;;;;;;;;;;5071005;28;20116;-46
2024/01/11 11:08:36;;;;;;;15.20;2.88;;;;;;;;;;5070984;28;20037;-44
2024/01/11 11:11:08;;;;;;;12.43;2.33;;;;;;;;;;5070636;28;20036;-44
2024/01/11 11:13:35;;;;;;;10.93;2.28;;;;;;;;;;5070615;28;20032;-43
2024/01/11 11:16:05;;;;;;;17.17;2.72;;;;;;;;;;5071169;28;20036;-43
2024/01/11 11:18:34;;;;;;;14.63;2.58;;;;;;;;;;5071665;28;20058;-42
2024/01/11 11:21:02;;;;;;;9.88;2.03;;;;;;;;;;5071350;28;20120;-43
2024/01/11 11:23:29;;;;;;;21.92;3.58;;;;;;;;;;5071477;28;20108;-43
2024/01/11 11:25:56;;;;;;;14.10;2.50;;;;;;;;;;5071283;28;20063;-42
2024/01/11 11:28:24;;;;;;;17.83;2.83;;;;;;;;;;5070194;28;20116;-43
2024/01/11 11:30:53;;;;;;;13.15;2.13;;;;;;;;;;5071532;28;20024;-42
2024/01/11 11:33:22;;;;;;;12.82;2.42;;;;;;;;;;5071163;28;20078;-43
2024/01/11 11:35:49;;;;;;;14.90;2.78;;;;;;;;;;5071063;28;20474;-43
2024/01/11 11:38:23;;;;;;;15.38;2.35;;;;;;;;;;5071441;28;20029;-44
2024/01/11 11:40:52;;;;;;;14.43;2.40;;;;;;;;;;5071514;28;20052;-42
2024/01/11 11:43:20;;;;;;;11.65;2.25;;;;;;;;;;5071468;28;20048;-43
2024/01/11 11:45:48;;;;;;;10.73;2.42;;;;;;;;;;5071418;28;20032;-42
2024/01/11 11:48:31;;;;;;;9.52;2.30;;;;;;;;;;5071235;28;20437;-43
2024/01/11 11:51:08;;;;;;;15.73;2.40;;;;;;;;;;5071322;28;20040;-43
2024/01/11 11:53:36;;;;;;;12.60;2.05;;;;;;;;;;5071286;28;20071;-42
2024/01/11 11:56:03;;;;;;;13.35;2.65;;;;;;;;;;5071245;28;20032;-42
2024/01/11 11:58:31;;;;;;;13.82;2.38;;;;;;;;;;5071250;28;20051;-42
2024/01/11 12:01:01;;;;;;;17.75;2.35;;;;;;;;;;5071219;28;20068;-42
2024/01/11 12:03:32;;;;;;;12.05;2.22;;;;;;;;;;5071223;28;20113;-43
2024/01/11 12:06:00;;;;;;;16.02;2.85;;;;;;;;;;5071150;28;20051;-42
2024/01/11 12:08:27;;;;;;;9.35;2.10;;;;;;;;;;5071138;28;20103;-42
2024/01/11 12:10:54;;;;;;;11.93;2.20;;;;;;;;;;5071170;28;20074;-42
2024/01/11 12:13:21;;;;;;;17.25;2.33;;;;;;;;;;5071194;28;20424;-42
2024/01/11 12:15:48;;;;;;;14.52;2.20;;;;;;;;;;5073449;28;20052;-42
2024/01/11 12:18:15;;;;;;;12.73;2.47;;;;;;;;;;5065861;28;20033;-43
2024/01/11 12:20:42;;;;;;;13.18;2.35;;;;;;;;;;5054614;28;20033;-43
2024/01/11 12:23:09;;;;;;;10.02;1.95;;;;;;;;;;5054798;28;20129;-42
2024/01/11 12:25:36;;;;;;;10.57;1.95;;;;;;;;;;5054442;28;20033;-44
2024/01/11 12:28:03;;;;;;;13.32;2.75;;;;;;;;;;5054612;28;20025;-43
2024/01/11 12:30:35;;;;;;;14.77;2.47;;;;;;;;;;5054487;28;20076;-42
2024/01/11 12:33:02;;;;;;;14.38;2.33;;;;;;;;;;5054499;28;20060;-43
2024/01/11 12:35:29;;;;;;;10.93;2.00;;;;;;;;;;5054476;28;20024;-43
2024/01/11 12:37:59;;;;;;;7.15;1.60;;;;;;;;;;5054319;28;20095;-42
2024/01/11 12:40:27;;;;;;;11.25;2.08;;;;;;;;;;5054478;28;20041;-42
2024/01/11 12:42:54;;;;;;;11.80;1.75;;;;;;;;;;5054406;28;20021;-42
2024/01/11 12:45:21;;;;;;;7.40;2.20;;;;;;;;;;5054270;28;20083;-41
2024/01/11 12:47:48;;;;;;;10.10;1.70;;;;;;;;;;5054201;28;20029;-42
2024/01/11 12:50:15;;;;;;;10.52;1.98;;;;;;;;;;5054352;28;20033;-43
2024/01/11 12:52:43;;;;;;;9.85;2.05;;;;;;;;;;5054239;28;20031;-42
2024/01/11 12:55:19;;;;;;;14.55;2.47;;;;;;;;;;5054152;28;20067;-43
2024/01/11 12:57:46;;;;;;;15.88;2.70;;;;;;;;;;5063375;28;20553;-43
2024/01/11 13:00:16;;;;;;;9.05;2.20;;;;;;;;;;5073516;28;20097;-43
2024/01/11 13:02:46;;;;;;;11.60;2.30;;;;;;;;;;5066215;28;20107;-43
2024/01/11 13:05:14;;;;;;;16.42;2.22;;;;;;;;;;5073178;28;20036;-43
2024/01/11 13:07:41;;;;;;;17.25;2.33;;;;;;;;;;5073513;28;20059;-42
2024/01/11 13:10:08;;;;;;;11.35;1.80;;;;;;;;;;5073582;28;20055;-42
2024/01/11 13:12:35;;;;;;;10.73;1.98;;;;;;;;;;5068260;28;20073;-43
2024/01/11 13:15:02;;;;;;;11.65;2.22;;;;;;;;;;5072700;28;20050;-43
2024/01/11 13:17:29;;;;;;;9.13;1.80;;;;;;;;;;5071990;28;20036;-42
2024/01/11 13:19:56;;;;;;;10.40;2.17;;;;;;;;;;5073480;28;20552;-42
2024/01/11 13:22:23;;;;;;;11.68;1.98;;;;;;;;;;5069984;28;20077;-42
2024/01/11 13:24:50;;;;;;;12.63;2.17;;;;;;;;;;5073329;28;20032;-41
2024/01/11 13:27:17;;;;;;;12.88;1.92;;;;;;;;;;5072367;28;20155;-42
2024/01/11 13:29:44;;;;;;;11.57;2.33;;;;;;;;;;5073107;28;20497;-41
2024/01/11 13:32:11;;;;;;;12.98;2.20;;;;;;;;;;5073072;28;20064;-44
2024/01/11 13:34:38;;;;;;;14.68;2.10;;;;;;;;;;5072884;28;20032;-41
2024/01/11 13:37:05;;;;;;;11.27;2.25;;;;;;;;;;5072776;28;20135;-41
2024/01/11 13:39:32;;;;;;;8.10;1.80;;;;;;;;;;5071420;28;20054;-41
2024/01/11 13:41:59;;;;;;;13.45;2.28;;;;;;;;;;5057167;28;20060;-41
2024/01/11 13:44:26;;;;;;;18.95;2.53;;;;;;;;;;5061751;28;20087;-44
2024/01/11 13:46:53;;;;;;;16.35;2.15;;;;;;;;;;5072860;28;20033;-45
2024/01/11 13:49:22;;;;;;;13.68;2.45;;;;;;;;;;5071473;28;20077;-49
2024/01/11 13:51:49;;;;;;;16.70;2.33;;;;;;;;;;5057766;28;20128;-42
2024/01/11 13:54:16;;;;;;;17.88;2.33;;;;;;;;;;5072260;28;20028;-42
2024/01/11 13:56:43;;;;;;;12.00;2.25;;;;;;;;;;5069823;28;20475;-42
2024/01/11 13:59:10;;;;;;;14.90;2.33;;;;;;;;;;5067680;28;20090;-41
2024/01/11 14:01:37;;;;;;;17.10;1.70;;;;;;;;;;5071047;28;20021;-42
2024/01/11 14:04:05;;;;;;;14.43;2.03;;;;;;;;;;5057090;28;20132;-42
2024/01/11 14:06:32;;;;;;;8.20;1.52;;;;;;;;;;5062905;28;20388;-42
2024/01/11 14:08:59;;;;;;;13.45;2.38;;;;;;;;;;5066681;28;20032;-42
2024/01/11 14:11:26;;;;;;;14.73;2.13;;;;;;;;;;5069783;28;20403;-42
2024/01/11 14:13:53;;;;;;;7.80;1.50;;;;;;;;;;5064442;28;20421;-46
2024/01/11 14:16:21;;;;;;;9.00;2.00;;;;;;;;;;5059655;28;20062;-41
2024/01/11 14:18:49;;;;;;;16.67;1.90;;;;;;;;;;5072222;28;20124;-41
2024/01/11 14:21:16;;;;;;;10.25;1.60;;;;;;;;;;5071032;28;20033;-44
2024/01/11 14:23:43;;;;;;;14.27;2.22;;;;;;;;;;5071635;28;20116;-43
2024/01/11 14:26:10;;;;;;;15.00;2.15;;;;;;;;;;5070084;28;20049;-41
2024/01/11 14:28:42;;;;;;;25.77;3.05;;;;;;;;;;5071415;28;20071;-41
2024/01/11 14:31:10;;;;;;;40.30;3.40;;;;;;;;;;5070819;28;20067;-41
2024/01/11 14:33:37;;;;;;;46.55;4.32;;;;;;;;;;5072299;28;20413;-41